Search for airport 
image banner adimage banner adimage banner ad
image banner ad

90IA - Missouri Valley

Located in Missouri Valley, United States

ICAO - 90IA, IATA -

Data provided by Airmate  

General information

Coordinates: N41°32'25" W95°53'16"
Elevation is 1000 feet MSL.
Magnetic variation is 06° East
View others Airports in Iowa

Operational data

Special qualification required
Current time UTC:
Current local time:
Weather at : KBTA - Blair Muni ( 23 km )
METAR: KBTA 181715Z AUTO 04015G20KT 10SM CLR 28/17 A2984 RMK AO2 T02810166
View NOTAMs / SUP AIP / TFR affecting this airport [VIEW]
Communications frequencies: [VIEW]

Runways:

RWY identifierQFULength (ft)Width (ft)SurfaceLDA (ft)
16240025ASPH
34240025ASPH

Airport contact information

Address: Missouri Valley United States

Satellite view of 90IA